sensor_id;sensor_type;location;lat;lon;timestamp;pressure;altitude;pressure_sealevel;temperature;humidity
61786;BME280;47692;53.714;11.372;2022-10-16T00:01:11;100406.47;;;13.67;100.00
61786;BME280;47692;53.714;11.372;2022-10-16T00:03:38;100410.81;;;13.68;100.00
61786;BME280;47692;53.714;11.372;2022-10-16T00:06:04;100415.38;;;13.63;100.00
61786;BME280;47692;53.714;11.372;2022-10-16T00:08:30;100414.91;;;13.53;100.00
61786;BME280;47692;53.714;11.372;2022-10-16T00:10:59;100415.81;;;13.52;100.00
61786;BME280;47692;53.714;11.372;2022-10-16T00:13:24;100415.56;;;13.58;100.00
61786;BME280;47692;53.714;11.372;2022-10-16T00:15:49;100417.31;;;13.57;100.00
61786;BME280;47692;53.714;11.372;2022-10-16T00:18:14;100409.75;;;13.50;100.00
61786;BME280;47692;53.714;11.372;2022-10-16T00:20:40;100422.94;;;13.48;100.00
61786;BME280;47692;53.714;11.372;2022-10-16T00:23:05;100415.31;;;13.42;100.00
61786;BME280;47692;53.714;11.372;2022-10-16T00:25:30;100430.34;;;13.37;100.00
61786;BME280;47692;53.714;11.372;2022-10-16T00:27:58;100422.47;;;13.37;100.00
61786;BME280;47692;53.714;11.372;2022-10-16T00:30:23;100425.22;;;13.34;100.00
61786;BME280;47692;53.714;11.372;2022-10-16T00:32:48;100426.25;;;13.30;100.00
61786;BME280;47692;53.714;11.372;2022-10-16T00:35:13;100442.13;;;13.27;100.00
61786;BME280;47692;53.714;11.372;2022-10-16T00:37:39;100449.19;;;13.24;100.00
61786;BME280;47692;53.714;11.372;2022-10-16T00:40:04;100446.56;;;13.24;100.00
61786;BME280;47692;53.714;11.372;2022-10-16T00:42:29;100447.59;;;13.20;100.00
61786;BME280;47692;53.714;11.372;2022-10-16T00:44:55;100449.47;;;13.17;100.00
61786;BME280;47692;53.714;11.372;2022-10-16T00:49:50;100449.69;;;13.11;100.00
61786;BME280;47692;53.714;11.372;2022-10-16T00:52:16;100451.59;;;13.07;100.00
61786;BME280;47692;53.714;11.372;2022-10-16T00:54:42;100449.06;;;13.04;100.00
61786;BME280;47692;53.714;11.372;2022-10-16T00:57:08;100450.94;;;13.00;100.00
61786;BME280;47692;53.714;11.372;2022-10-16T00:59:35;100453.75;;;12.96;100.00
61786;BME280;47692;53.714;11.372;2022-10-16T01:02:01;100450.31;;;12.93;100.00
61786;BME280;47692;53.714;11.372;2022-10-16T01:04:28;100453.09;;;12.89;100.00
61786;BME280;47692;53.714;11.372;2022-10-16T01:09:34;100460.34;;;12.82;100.00
61786;BME280;47692;53.714;11.372;2022-10-16T01:12:06;100457.81;;;12.79;100.00
61786;BME280;47692;53.714;11.372;2022-10-16T01:14:41;100468.28;;;12.79;100.00
61786;BME280;47692;53.714;11.372;2022-10-16T01:17:31;100458.75;;;12.78;100.00
61786;BME280;47692;53.714;11.372;2022-10-16T01:22:53;100472.06;;;12.72;100.00
61786;BME280;47692;53.714;11.372;2022-10-16T01:25:43;100465.34;;;12.65;100.00
61786;BME280;47692;53.714;11.372;2022-10-16T01:28:16;100470.66;;;12.61;100.00
61786;BME280;47692;53.714;11.372;2022-10-16T01:30:44;100479.53;;;12.57;100.00
61786;BME280;47692;53.714;11.372;2022-10-16T01:33:17;100476.31;;;12.51;100.00
61786;BME280;47692;53.714;11.372;2022-10-16T01:35:58;100472.94;;;12.47;100.00
61786;BME280;47692;53.714;11.372;2022-10-16T01:38:37;100481.69;;;12.46;100.00
61786;BME280;47692;53.714;11.372;2022-10-16T01:41:10;100474.72;;;12.45;100.00
61786;BME280;47692;53.714;11.372;2022-10-16T01:43:41;100479.97;;;12.45;100.00
61786;BME280;47692;53.714;11.372;2022-10-16T01:46:07;100480.06;;;12.42;100.00
61786;BME280;47692;53.714;11.372;2022-10-16T01:48:34;100487.13;;;12.40;100.00
61786;BME280;47692;53.714;11.372;2022-10-16T01:51:02;100487.13;;;12.40;100.00
61786;BME280;47692;53.714;11.372;2022-10-16T01:53:28;100486.25;;;12.39;100.00
61786;BME280;47692;53.714;11.372;2022-10-16T01:55:54;100490.72;;;12.37;100.00
61786;BME280;47692;53.714;11.372;2022-10-16T01:58:20;100485.53;;;12.36;100.00
61786;BME280;47692;53.714;11.372;2022-10-16T02:00:47;100488.25;;;12.33;100.00
61786;BME280;47692;53.714;11.372;2022-10-16T02:03:13;100480.44;;;12.31;100.00
61786;BME280;47692;53.714;11.372;2022-10-16T02:05:41;100489.16;;;12.32;100.00
61786;BME280;47692;53.714;11.372;2022-10-16T02:08:07;100492.78;;;12.27;100.00
61786;BME280;47692;53.714;11.372;2022-10-16T02:10:32;100499.88;;;12.24;100.00
61786;BME280;47692;53.714;11.372;2022-10-16T02:13:02;100501.69;;;12.22;100.00
61786;BME280;47692;53.714;11.372;2022-10-16T02:15:28;100489.56;;;12.19;100.00
61786;BME280;47692;53.714;11.372;2022-10-16T02:17:54;100499.19;;;12.19;100.00
61786;BME280;47692;53.714;11.372;2022-10-16T02:20:20;100494.84;;;12.18;100.00
61786;BME280;47692;53.714;11.372;2022-10-16T02:22:50;100494.91;;;12.16;100.00
61786;BME280;47692;53.714;11.372;2022-10-16T02:25:17;100496.69;;;12.14;100.00
61786;BME280;47692;53.714;11.372;2022-10-16T02:27:50;100497.66;;;12.11;100.00
61786;BME280;47692;53.714;11.372;2022-10-16T02:30:37;100503.00;;;12.08;100.00
61786;BME280;47692;53.714;11.372;2022-10-16T02:33:05;100497.91;;;12.04;100.00
61786;BME280;47692;53.714;11.372;2022-10-16T02:35:32;100493.53;;;12.04;100.00
61786;BME280;47692;53.714;11.372;2022-10-16T02:37:57;100501.50;;;12.00;100.00
61786;BME280;47692;53.714;11.372;2022-10-16T02:40:23;100504.09;;;12.01;100.00
61786;BME280;47692;53.714;11.372;2022-10-16T02:42:50;100498.91;;;12.00;100.00
61786;BME280;47692;53.714;11.372;2022-10-16T02:45:17;100495.38;;;12.01;100.00
61786;BME280;47692;53.714;11.372;2022-10-16T02:47:43;100491.97;;;11.99;100.00
61786;BME280;47692;53.714;11.372;2022-10-16T02:50:08;100486.75;;;11.99;100.00
61786;BME280;47692;53.714;11.372;2022-10-16T02:52:33;100482.41;;;11.98;100.00
61786;BME280;47692;53.714;11.372;2022-10-16T02:54:58;100485.03;;;11.98;100.00
61786;BME280;47692;53.714;11.372;2022-10-16T02:57:24;100486.78;;;11.97;100.00
61786;BME280;47692;53.714;11.372;2022-10-16T02:59:49;100477.19;;;11.98;100.00
61786;BME280;47692;53.714;11.372;2022-10-16T03:02:14;100485.03;;;11.98;100.00
61786;BME280;47692;53.714;11.372;2022-10-16T03:04:39;100488.56;;;11.96;100.00
61786;BME280;47692;53.714;11.372;2022-10-16T03:07:04;100475.50;;;11.95;100.00
61786;BME280;47692;53.714;11.372;2022-10-16T03:09:30;100477.25;;;11.94;100.00
61786;BME280;47692;53.714;11.372;2022-10-16T03:11:55;100485.03;;;11.98;100.00
61786;BME280;47692;53.714;11.372;2022-10-16T03:14:20;100486.91;;;11.92;100.00
61786;BME280;47692;53.714;11.372;2022-10-16T03:16:45;100493.03;;;11.91;100.00
61786;BME280;47692;53.714;11.372;2022-10-16T03:19:11;100492.22;;;11.89;100.00
61786;BME280;47692;53.714;11.372;2022-10-16T03:21:36;100495.66;;;11.91;100.00
61786;BME280;47692;53.714;11.372;2022-10-16T03:24:02;100501.84;;;11.89;100.00
61786;BME280;47692;53.714;11.372;2022-10-16T03:26:27;100495.84;;;11.85;100.00
61786;BME280;47692;53.714;11.372;2022-10-16T03:28:52;100503.75;;;11.84;100.00
61786;BME280;47692;53.714;11.372;2022-10-16T03:31:18;100499.28;;;11.87;100.00
61786;BME280;47692;53.714;11.372;2022-10-16T03:33:43;100490.72;;;11.82;100.00
61786;BME280;47692;53.714;11.372;2022-10-16T03:36:08;100499.56;;;11.78;100.00
61786;BME280;47692;53.714;11.372;2022-10-16T03:38:34;100498.75;;;11.76;100.00
61786;BME280;47692;53.714;11.372;2022-10-16T03:40:59;100494.34;;;11.78;100.00
61786;BME280;47692;53.714;11.372;2022-10-16T03:43:25;100496.13;;;11.76;100.00
61786;BME280;47692;53.714;11.372;2022-10-16T03:45:50;100495.34;;;11.74;100.00
61786;BME280;47692;53.714;11.372;2022-10-16T03:48:17;100492.81;;;11.71;100.00
61786;BME280;47692;53.714;11.372;2022-10-16T03:50:42;100503.25;;;11.71;100.00
61786;BME280;47692;53.714;11.372;2022-10-16T03:53:07;100495.38;;;11.72;100.00
61786;BME280;47692;53.714;11.372;2022-10-16T03:55:33;100495.41;;;11.71;100.00
61786;BME280;47692;53.714;11.372;2022-10-16T03:57:59;100495.47;;;11.69;100.00
61786;BME280;47692;53.714;11.372;2022-10-16T04:00:24;100496.44;;;11.67;100.00
61786;BME280;47692;53.714;11.372;2022-10-16T04:02:50;100499.88;;;11.69;100.00
61786;BME280;47692;53.714;11.372;2022-10-16T04:05:15;100499.09;;;11.65;100.00
61786;BME280;47692;53.714;11.372;2022-10-16T04:07:41;100497.38;;;11.64;100.00
61786;BME280;47692;53.714;11.372;2022-10-16T04:10:06;100497.38;;;11.64;100.00
61786;BME280;47692;53.714;11.372;2022-10-16T04:12:32;100507.91;;;11.62;100.00
61786;BME280;47692;53.714;11.372;2022-10-16T04:14:57;100503.56;;;11.61;100.00
61786;BME280;47692;53.714;11.372;2022-10-16T04:17:23;100501.09;;;11.57;100.00
61786;BME280;47692;53.714;11.372;2022-10-16T04:19:48;100505.47;;;11.56;100.00
61786;BME280;47692;53.714;11.372;2022-10-16T04:22:13;100511.66;;;11.54;100.00
61786;BME280;47692;53.714;11.372;2022-10-16T04:24:39;100520.34;;;11.54;100.00
61786;BME280;47692;53.714;11.372;2022-10-16T04:27:04;100535.19;;;11.52;100.00
61786;BME280;47692;53.714;11.372;2022-10-16T04:29:29;100526.56;;;11.50;100.00
61786;BME280;47692;53.714;11.372;2022-10-16T04:31:55;100526.75;;;11.44;100.00
61786;BME280;47692;53.714;11.372;2022-10-16T04:34:20;100529.53;;;11.38;100.00
61786;BME280;47692;53.714;11.372;2022-10-16T04:36:48;100540.16;;;11.31;100.00
61786;BME280;47692;53.714;11.372;2022-10-16T04:39:14;100533.28;;;11.29;100.00
61786;BME280;47692;53.714;11.372;2022-10-16T04:41:40;100539.44;;;11.26;100.00
61786;BME280;47692;53.714;11.372;2022-10-16T04:44:05;100545.63;;;11.22;100.00
61786;BME280;47692;53.714;11.372;2022-10-16T04:46:30;100537.81;;;11.22;100.00
61786;BME280;47692;53.714;11.372;2022-10-16T04:48:56;100543.13;;;11.19;100.00
61786;BME280;47692;53.714;11.372;2022-10-16T04:51:21;100542.31;;;11.17;100.00
61786;BME280;47692;53.714;11.372;2022-10-16T04:53:46;100546.81;;;11.12;100.00
61786;BME280;47692;53.714;11.372;2022-10-16T04:56:12;100546.03;;;11.08;100.00
61786;BME280;47692;53.714;11.372;2022-10-16T04:58:37;100551.25;;;11.08;100.00
61786;BME280;47692;53.714;11.372;2022-10-16T05:01:02;100545.34;;;11.02;100.00
61786;BME280;47692;53.714;11.372;2022-10-16T05:03:28;100546.31;;;10.99;100.00
61786;BME280;47692;53.714;11.372;2022-10-16T05:05:53;100560.25;;;10.98;100.00
61786;BME280;47692;53.714;11.372;2022-10-16T05:08:18;100552.41;;;10.98;100.00
61786;BME280;47692;53.714;11.372;2022-10-16T05:10:44;100562.88;;;10.98;100.00
61786;BME280;47692;53.714;11.372;2022-10-16T05:13:11;100560.31;;;10.95;100.00
61786;BME280;47692;53.714;11.372;2022-10-16T05:15:36;100558.59;;;10.94;100.00
61786;BME280;47692;53.714;11.372;2022-10-16T05:18:02;100562.97;;;10.93;100.00
61786;BME280;47692;53.714;11.372;2022-10-16T05:20:27;100568.28;;;10.90;100.00
61786;BME280;47692;53.714;11.372;2022-10-16T05:22:53;100563.06;;;10.90;100.00
61786;BME280;47692;53.714;11.372;2022-10-16T05:25:18;100573.50;;;10.90;100.00
61786;BME280;47692;53.714;11.372;2022-10-16T05:27:47;100574.38;;;10.91;100.00
61786;BME280;47692;53.714;11.372;2022-10-16T05:30:13;100576.03;;;10.93;100.00
61786;BME280;47692;53.714;11.372;2022-10-16T05:32:38;100583.94;;;10.90;100.00
61786;BME280;47692;53.714;11.372;2022-10-16T05:35:04;100581.34;;;10.90;100.00
61786;BME280;47692;53.714;11.372;2022-10-16T05:37:29;100591.78;;;10.90;100.00
61786;BME280;47692;53.714;11.372;2022-10-16T05:39:55;100603.06;;;10.92;100.00
61786;BME280;47692;53.714;11.372;2022-10-16T05:42:20;100596.03;;;10.94;100.00
61786;BME280;47692;53.714;11.372;2022-10-16T05:44:46;100600.50;;;10.91;100.00
61786;BME280;47692;53.714;11.372;2022-10-16T05:47:12;100604.84;;;10.90;100.00
61786;BME280;47692;53.714;11.372;2022-10-16T05:49:39;100609.09;;;10.94;100.00
61786;BME280;47692;53.714;11.372;2022-10-16T05:52:04;100610.88;;;10.92;100.00
61786;BME280;47692;53.714;11.372;2022-10-16T05:54:29;100605.66;;;10.92;100.00
61786;BME280;47692;53.714;11.372;2022-10-16T05:56:55;100612.72;;;10.89;100.00
61786;BME280;47692;53.714;11.372;2022-10-16T05:59:20;100619.56;;;10.94;100.00
61786;BME280;47692;53.714;11.372;2022-10-16T06:01:45;100608.31;;;10.91;100.00
61786;BME280;47692;53.714;11.372;2022-10-16T06:04:11;100617.00;;;10.91;100.00
61786;BME280;47692;53.714;11.372;2022-10-16T06:06:36;100621.34;;;10.92;100.00
61786;BME280;47692;53.714;11.372;2022-10-16T06:09:03;100628.38;;;10.89;100.00
61786;BME280;47692;53.714;11.372;2022-10-16T06:11:31;100627.44;;;10.91;100.00
61786;BME280;47692;53.714;11.372;2022-10-16T06:13:59;100630.97;;;10.90;100.00
61786;BME280;47692;53.714;11.372;2022-10-16T06:16:27;100634.41;;;10.92;100.00
61786;BME280;47692;53.714;11.372;2022-10-16T06:18:54;100630.06;;;10.91;100.00
61786;BME280;47692;53.714;11.372;2022-10-16T06:21:21;100632.78;;;10.88;100.00
61786;BME280;47692;53.714;11.372;2022-10-16T06:23:50;100635.44;;;10.87;100.00
61786;BME280;47692;53.714;11.372;2022-10-16T06:26:19;100640.66;;;10.85;100.00
61786;BME280;47692;53.714;11.372;2022-10-16T06:28:45;100644.16;;;10.84;100.00
61786;BME280;47692;53.714;11.372;2022-10-16T06:31:12;100642.38;;;10.86;100.00
61786;BME280;47692;53.714;11.372;2022-10-16T06:33:38;100649.44;;;10.82;100.00
61786;BME280;47692;53.714;11.372;2022-10-16T06:36:15;100647.69;;;10.83;100.00
61786;BME280;47692;53.714;11.372;2022-10-16T06:38:41;100648.50;;;10.85;100.00
61786;BME280;47692;53.714;11.372;2022-10-16T06:41:09;100653.72;;;10.85;100.00
61786;BME280;47692;53.714;11.372;2022-10-16T06:43:36;100654.56;;;10.87;100.00
61786;BME280;47692;53.714;11.372;2022-10-16T06:46:02;100655.44;;;10.86;100.00
61786;BME280;47692;53.714;11.372;2022-10-16T06:48:28;100665.06;;;10.86;100.00
61786;BME280;47692;53.714;11.372;2022-10-16T06:51:05;100665.97;;;10.83;100.00
61786;BME280;47692;53.714;11.372;2022-10-16T06:53:33;100663.38;;;10.83;100.00
61786;BME280;47692;53.714;11.372;2022-10-16T06:56:20;100676.44;;;10.81;100.00
61786;BME280;47692;53.714;11.372;2022-10-16T06:58:49;100670.38;;;10.81;100.00
61786;BME280;47692;53.714;11.372;2022-10-16T07:01:16;100670.34;;;10.82;100.00
61786;BME280;47692;53.714;11.372;2022-10-16T07:03:43;100670.44;;;10.79;100.00
61786;BME280;47692;53.714;11.372;2022-10-16T07:06:11;100675.66;;;10.79;100.00
61786;BME280;47692;53.714;11.372;2022-10-16T07:08:38;100677.28;;;10.83;100.00
61786;BME280;47692;53.714;11.372;2022-10-16T07:11:07;100676.34;;;10.86;100.00
61786;BME280;47692;53.714;11.372;2022-10-16T07:13:36;100681.66;;;10.83;100.00
61786;BME280;47692;53.714;11.372;2022-10-16T07:16:15;100691.03;;;10.90;100.00
61786;BME280;47692;53.714;11.372;2022-10-16T07:18:41;100685.69;;;10.95;100.00
61786;BME280;47692;53.714;11.372;2022-10-16T07:21:20;100695.16;;;11.01;100.00
61786;BME280;47692;53.714;11.372;2022-10-16T07:23:53;100701.19;;;11.03;100.00
61786;BME280;47692;53.714;11.372;2022-10-16T07:26:18;100712.41;;;11.08;100.00
61786;BME280;47692;53.714;11.372;2022-10-16T07:28:44;100714.91;;;11.11;100.00
61786;BME280;47692;53.714;11.372;2022-10-16T07:31:11;100714.03;;;11.12;100.00
61786;BME280;47692;53.714;11.372;2022-10-16T07:33:39;100720.00;;;11.17;100.00
61786;BME280;47692;53.714;11.372;2022-10-16T07:36:07;100725.97;;;11.22;100.00
61786;BME280;47692;53.714;11.372;2022-10-16T07:38:33;100718.00;;;11.27;100.00
61786;BME280;47692;53.714;11.372;2022-10-16T07:40:59;100718.69;;;11.34;100.00
61786;BME280;47692;53.714;11.372;2022-10-16T07:43:26;100711.63;;;11.37;100.00
61786;BME280;47692;53.714;11.372;2022-10-16T07:45:51;100714.34;;;11.34;100.00
61786;BME280;47692;53.714;11.372;2022-10-16T07:48:17;100726.53;;;11.35;100.00
61786;BME280;47692;53.714;11.372;2022-10-16T07:50:43;100723.84;;;11.37;100.00
61786;BME280;47692;53.714;11.372;2022-10-16T07:53:09;100723.75;;;11.40;100.00
61786;BME280;47692;53.714;11.372;2022-10-16T07:55:34;100730.56;;;11.47;100.00
61786;BME280;47692;53.714;11.372;2022-10-16T07:58:00;100722.53;;;11.53;100.00
61786;BME280;47692;53.714;11.372;2022-10-16T08:00:25;100727.41;;;11.67;100.00
61786;BME280;47692;53.714;11.372;2022-10-16T08:02:50;100728.88;;;11.77;100.00
61786;BME280;47692;53.714;11.372;2022-10-16T08:05:15;100732.84;;;11.92;100.00
61786;BME280;47692;53.714;11.372;2022-10-16T08:07:41;100730.88;;;12.01;100.00
61786;BME280;47692;53.714;11.372;2022-10-16T08:10:19;100740.09;;;12.14;100.00
61786;BME280;47692;53.714;11.372;2022-10-16T08:12:45;100742.47;;;12.23;100.00
61786;BME280;47692;53.714;11.372;2022-10-16T08:15:10;100728.25;;;12.31;100.00
61786;BME280;47692;53.714;11.372;2022-10-16T08:17:36;100744.56;;;12.40;100.00
61786;BME280;47692;53.714;11.372;2022-10-16T08:20:02;100735.53;;;12.51;100.00
61786;BME280;47692;53.714;11.372;2022-10-16T08:22:27;100745.72;;;12.60;100.00
61786;BME280;47692;53.714;11.372;2022-10-16T08:24:53;100740.16;;;12.71;100.00
61786;BME280;47692;53.714;11.372;2022-10-16T08:27:18;100740.66;;;12.82;100.00
61786;BME280;47692;53.714;11.372;2022-10-16T08:29:43;100748.53;;;13.09;100.00
61786;BME280;47692;53.714;11.372;2022-10-16T08:32:09;100743.00;;;13.18;100.00
61786;BME280;47692;53.714;11.372;2022-10-16T08:34:34;100744.38;;;13.29;100.00
61786;BME280;47692;53.714;11.372;2022-10-16T08:36:59;100750.25;;;13.37;100.00
61786;BME280;47692;53.714;11.372;2022-10-16T08:39:25;100750.66;;;13.51;100.00
61786;BME280;47692;53.714;11.372;2022-10-16T08:42:14;100754.69;;;13.62;100.00
61786;BME280;47692;53.714;11.372;2022-10-16T08:47:45;100753.66;;;13.66;100.00
61786;BME280;47692;53.714;11.372;2022-10-16T08:50:18;100747.78;;;13.59;100.00
61786;BME280;47692;53.714;11.372;2022-10-16T08:52:46;100762.44;;;13.65;100.00
61786;BME280;47692;53.714;11.372;2022-10-16T08:55:17;100765.97;;;13.64;100.00
61786;BME280;47692;53.714;11.372;2022-10-16T08:57:46;100768.50;;;13.67;100.00
61786;BME280;47692;53.714;11.372;2022-10-16T09:00:13;100765.75;;;13.70;100.00
61786;BME280;47692;53.714;11.372;2022-10-16T09:02:49;100773.41;;;13.76;100.00
61786;BME280;47692;53.714;11.372;2022-10-16T09:12:54;100771.84;;;14.19;98.83
61786;BME280;47692;53.714;11.372;2022-10-16T09:15:24;100777.53;;;14.32;98.34
61786;BME280;47692;53.714;11.372;2022-10-16T09:18:05;100771.84;;;14.43;98.31
61786;BME280;47692;53.714;11.372;2022-10-16T09:20:38;100774.53;;;14.42;97.14
61786;BME280;47692;53.714;11.372;2022-10-16T09:23:12;100773.03;;;14.36;97.07
61786;BME280;47692;53.714;11.372;2022-10-16T09:25:39;100785.56;;;14.28;97.48
61786;BME280;47692;53.714;11.372;2022-10-16T09:28:07;100782.34;;;14.43;98.33
61786;BME280;47692;53.714;11.372;2022-10-16T09:30:33;100778.41;;;14.55;97.16
61786;BME280;47692;53.714;11.372;2022-10-16T09:32:58;100772.84;;;14.63;96.80
61786;BME280;47692;53.714;11.372;2022-10-16T09:35:31;100772.41;;;14.75;95.94
61786;BME280;47692;53.714;11.372;2022-10-16T09:37:57;100773.81;;;14.84;95.18
61786;BME280;47692;53.714;11.372;2022-10-16T09:40:26;100778.41;;;14.79;95.23
61786;BME280;47692;53.714;11.372;2022-10-16T09:42:56;100778.41;;;14.79;94.25
61786;BME280;47692;53.714;11.372;2022-10-16T09:45:22;100783.19;;;14.91;95.21
61786;BME280;47692;53.714;11.372;2022-10-16T09:47:48;100786.06;;;15.07;94.83
61786;BME280;47692;53.714;11.372;2022-10-16T09:50:24;100784.88;;;15.14;93.00
61786;BME280;47692;53.714;11.372;2022-10-16T09:52:50;100782.34;;;15.33;92.50
61786;BME280;47692;53.714;11.372;2022-10-16T09:55:16;100784.47;;;15.46;91.95
61786;BME280;47692;53.714;11.372;2022-10-16T09:57:51;100783.09;;;15.58;90.85
61786;BME280;47692;53.714;11.372;2022-10-16T10:00:17;100789.25;;;15.77;90.51
61786;BME280;47692;53.714;11.372;2022-10-16T10:02:43;100794.00;;;16.10;89.11
61786;BME280;47692;53.714;11.372;2022-10-16T10:05:18;100799.53;;;16.04;87.46
61786;BME280;47692;53.714;11.372;2022-10-16T10:07:46;100800.03;;;16.12;87.32
61786;BME280;47692;53.714;11.372;2022-10-16T10:10:28;100799.38;;;16.28;86.74
61786;BME280;47692;53.714;11.372;2022-10-16T10:12:54;100798.25;;;16.34;85.68
61786;BME280;47692;53.714;11.372;2022-10-16T10:15:20;100803.63;;;16.30;86.10
61786;BME280;47692;53.714;11.372;2022-10-16T10:17:50;100803.34;;;16.37;85.68
61786;BME280;47692;53.714;11.372;2022-10-16T10:22:41;100813.69;;;16.41;83.66
61786;BME280;47692;53.714;11.372;2022-10-16T10:30:36;100807.06;;;16.52;84.19
61786;BME280;47692;53.714;11.372;2022-10-16T10:33:12;100800.38;;;16.44;84.17
61786;BME280;47692;53.714;11.372;2022-10-16T10:38:20;100810.66;;;16.70;84.69
61786;BME280;47692;53.714;11.372;2022-10-16T10:45:45;100823.88;;;16.68;82.26
61786;BME280;47692;53.714;11.372;2022-10-16T10:48:31;100826.94;;;16.78;83.12
61786;BME280;47692;53.714;11.372;2022-10-16T10:51:04;100826.72;;;16.83;81.75
61786;BME280;47692;53.714;11.372;2022-10-16T10:53:51;100822.44;;;16.99;80.95
61786;BME280;47692;53.714;11.372;2022-10-16T11:01:22;100829.19;;;17.24;80.14
61786;BME280;47692;53.714;11.372;2022-10-16T11:08:43;100837.91;;;17.43;77.36
61786;BME280;47692;53.714;11.372;2022-10-16T11:13:42;100834.44;;;17.60;74.59
61786;BME280;47692;53.714;11.372;2022-10-16T11:16:45;100827.66;;;17.72;76.28
61786;BME280;47692;53.714;11.372;2022-10-16T11:19:12;100824.22;;;17.70;75.42
61786;BME280;47692;53.714;11.372;2022-10-16T11:21:43;100830.38;;;17.71;75.28
61786;BME280;47692;53.714;11.372;2022-10-16T11:26:59;100848.25;;;17.66;75.95
61786;BME280;47692;53.714;11.372;2022-10-16T11:29:29;100843.72;;;17.68;74.08
61786;BME280;47692;53.714;11.372;2022-10-16T11:31:57;100853.13;;;17.56;74.97
61786;BME280;47692;53.714;11.372;2022-10-16T11:34:28;100845.03;;;17.76;73.90
61786;BME280;47692;53.714;11.372;2022-10-16T11:36:58;100849.00;;;17.68;71.74
61786;BME280;47692;53.714;11.372;2022-10-16T11:39:27;100847.06;;;17.71;72.01
61786;BME280;47692;53.714;11.372;2022-10-16T11:47:24;100854.69;;;18.13;70.54
61786;BME280;47692;53.714;11.372;2022-10-16T11:49:52;100841.81;;;18.22;69.64
61786;BME280;47692;53.714;11.372;2022-10-16T11:52:25;100850.59;;;18.40;68.69
61786;BME280;47692;53.714;11.372;2022-10-16T11:55:27;100837.81;;;18.49;68.33
61786;BME280;47692;53.714;11.372;2022-10-16T11:57:49;100849.69;;;18.24;68.97
61786;BME280;47692;53.714;11.372;2022-10-16T12:08:02;100837.09;;;18.29;66.53
61786;BME280;47692;53.714;11.372;2022-10-16T12:10:29;100842.56;;;18.08;66.36
61786;BME280;47692;53.714;11.372;2022-10-16T12:12:57;100847.84;;;18.42;65.92
61786;BME280;47692;53.714;11.372;2022-10-16T12:15:30;100856.38;;;18.47;66.10
61786;BME280;47692;53.714;11.372;2022-10-16T12:17:55;100860.34;;;18.72;65.32
61786;BME280;47692;53.714;11.372;2022-10-16T12:22:50;100872.78;;;18.54;65.97
61786;BME280;47692;53.714;11.372;2022-10-16T12:30:34;100873.19;;;18.46;65.66
61786;BME280;47692;53.714;11.372;2022-10-16T12:33:19;100881.78;;;18.50;65.75
61786;BME280;47692;53.714;11.372;2022-10-16T12:35:46;100877.78;;;18.43;65.61
61786;BME280;47692;53.714;11.372;2022-10-16T12:40:39;100890.38;;;18.87;65.25
61786;BME280;47692;53.714;11.372;2022-10-16T12:43:13;100888.91;;;18.65;65.69
61786;BME280;47692;53.714;11.372;2022-10-16T12:45:58;100889.97;;;18.12;65.76
61786;BME280;47692;53.714;11.372;2022-10-16T12:48:23;100905.94;;;17.91;67.44
61786;BME280;47692;53.714;11.372;2022-10-16T12:50:49;100915.09;;;17.84;67.79
61786;BME280;47692;53.714;11.372;2022-10-16T12:53:19;100920.09;;;18.07;67.44
61786;BME280;47692;53.714;11.372;2022-10-16T12:56:03;100916.41;;;17.94;68.13
61786;BME280;47692;53.714;11.372;2022-10-16T12:58:48;100927.38;;;17.85;67.92
61786;BME280;47692;53.714;11.372;2022-10-16T13:01:28;100927.69;;;17.79;68.26
61786;BME280;47692;53.714;11.372;2022-10-16T13:06:30;100931.63;;;18.06;68.24
61786;BME280;47692;53.714;11.372;2022-10-16T13:09:07;100936.97;;;18.22;67.32
61786;BME280;47692;53.714;11.372;2022-10-16T13:14:09;100948.19;;;18.61;66.50
61786;BME280;47692;53.714;11.372;2022-10-16T13:19:10;100948.72;;;18.17;65.74
61786;BME280;47692;53.714;11.372;2022-10-16T13:21:43;100948.41;;;18.23;64.70
61786;BME280;47692;53.714;11.372;2022-10-16T13:29:08;100963.66;;;17.44;64.49
61786;BME280;47692;53.714;11.372;2022-10-16T13:31:36;100971.72;;;17.41;65.21
61786;BME280;47692;53.714;11.372;2022-10-16T13:34:02;100967.13;;;17.45;65.96
61786;BME280;47692;53.714;11.372;2022-10-16T13:36:29;100976.31;;;17.55;65.79
61786;BME280;47692;53.714;11.372;2022-10-16T13:39:15;100988.69;;;17.55;65.94
61786;BME280;47692;53.714;11.372;2022-10-16T13:41:42;100984.03;;;17.60;66.18
61786;BME280;47692;53.714;11.372;2022-10-16T13:44:15;100985.97;;;17.37;67.24
61786;BME280;47692;53.714;11.372;2022-10-16T13:46:43;100992.97;;;17.38;67.29
61786;BME280;47692;53.714;11.372;2022-10-16T13:49:13;100993.91;;;17.18;68.18
61786;BME280;47692;53.714;11.372;2022-10-16T13:51:38;100990.75;;;16.89;68.74
61786;BME280;47692;53.714;11.372;2022-10-16T13:54:04;100996.03;;;17.29;68.10
61786;BME280;47692;53.714;11.372;2022-10-16T13:56:30;100998.66;;;17.67;67.15
61786;BME280;47692;53.714;11.372;2022-10-16T14:01:25;101012.59;;;17.88;66.84
61786;BME280;47692;53.714;11.372;2022-10-16T14:03:51;101015.94;;;17.92;67.11
61786;BME280;47692;53.714;11.372;2022-10-16T14:06:18;101010.72;;;18.09;66.87